Time,TemperatureF,DewpointF,PressureIn,WindDirection,WindDirectionDegrees,WindSpeedMPH,WindSpeedGustMPH,Humidity,HourlyPrecipIn,Conditions,Clouds,dailyrainin,SoftwareType,DateUTC
2013-03-04 00:00:00,48.6,41.7,30.17,NW,317,0.0,-999.0,77,0.00,,,0.00,Wunderground v.1.15,2013-03-04 05:00:00,
2013-03-04 00:05:00,48.3,41.8,30.17,NW,317,0.0,-999.0,78,0.00,,,0.00,Wunderground v.1.15,2013-03-04 05:05:00,
2013-03-04 00:10:00,48.0,41.8,30.17,NW,317,0.0,-999.0,79,0.00,,,0.00,Wunderground v.1.15,2013-03-04 05:10:00,
2013-03-04 00:15:00,47.8,41.6,30.16,NW,317,0.0,-999.0,79,0.00,,,0.00,Wunderground v.1.15,2013-03-04 05:15:00,
2013-03-04 00:20:00,47.5,41.3,30.17,NW,317,0.0,-999.0,79,0.00,,,0.00,Wunderground v.1.15,2013-03-04 05:20:00,
2013-03-04 00:25:00,47.3,41.1,30.17,NW,317,0.0,-999.0,79,0.00,,,0.00,Wunderground v.1.15,2013-03-04 05:25:00,
2013-03-04 00:35:00,47.0,40.8,30.16,NNW,346,0.0,-999.0,79,0.00,,,0.00,Wunderground v.1.15,2013-03-04 05:35:00,
2013-03-04 00:40:00,46.8,40.6,30.16,NNW,344,0.0,-999.0,79,0.00,,,0.00,Wunderground v.1.15,2013-03-04 05:40:00,
2013-03-04 00:45:00,46.6,40.4,30.16,NNW,345,0.0,-999.0,79,0.00,,,0.00,Wunderground v.1.15,2013-03-04 05:45:00,
2013-03-04 00:50:00,46.5,40.3,30.16,NNE,14,0.0,-999.0,79,0.00,,,0.00,Wunderground v.1.15,2013-03-04 05:50:00,
2013-03-04 00:55:00,46.3,40.1,30.16,NE,45,0.0,-999.0,79,0.00,,,0.00,Wunderground v.1.15,2013-03-04 05:55:00,
2013-03-04 01:00:00,46.2,40.0,30.16,NNE,30,0.0,-999.0,79,0.00,,,0.00,Wunderground v.1.15,2013-03-04 06:00:00,
2013-03-04 01:10:00,45.9,39.4,30.16,NNE,29,0.0,-999.0,78,0.00,,,0.00,Wunderground v.1.15,2013-03-04 06:10:00,
2013-03-04 01:15:00,45.7,38.9,30.15,NNE,30,0.0,-999.0,77,0.00,,,0.00,Wunderground v.1.15,2013-03-04 06:15:00,
2013-03-04 01:20:00,45.6,39.1,30.15,NNE,30,0.0,-999.0,78,0.00,,,0.00,Wunderground v.1.15,2013-03-04 06:20:00,
2013-03-04 01:25:00,45.5,39.0,30.15,NNE,32,0.0,-999.0,78,0.00,,,0.00,Wunderground v.1.15,2013-03-04 06:25:00,
2013-03-04 01:30:00,45.4,38.9,30.15,NNE,32,0.0,-999.0,78,0.00,,,0.00,Wunderground v.1.15,2013-03-04 06:30:00,
2013-03-04 01:40:00,45.1,38.3,30.15,NNE,32,0.0,-999.0,77,0.00,,,0.00,Wunderground v.1.15,2013-03-04 06:40:00,
2013-03-04 01:45:00,45.1,38.6,30.15,NNE,32,0.0,-999.0,78,0.00,,,0.00,Wunderground v.1.15,2013-03-04 06:45:00,
2013-03-04 01:50:00,45.0,38.2,30.15,NNE,32,0.0,-999.0,77,0.00,,,0.00,Wunderground v.1.15,2013-03-04 06:50:00,
2013-03-04 01:55:00,44.9,38.5,30.16,NNE,32,0.0,-999.0,78,0.00,,,0.00,Wunderground v.1.15,2013-03-04 06:55:00,
2013-03-04 02:00:00,44.7,37.9,30.15,NNE,32,0.0,-999.0,77,0.00,,,0.00,Wunderground v.1.15,2013-03-04 07:00:00,
2013-03-04 02:10:00,44.5,38.1,30.15,NNE,32,0.0,-999.0,78,0.00,,,0.00,Wunderground v.1.15,2013-03-04 07:10:00,
2013-03-04 02:15:00,44.4,38.0,30.15,NNE,32,0.0,-999.0,78,0.00,,,0.00,Wunderground v.1.15,2013-03-04 07:15:00,
2013-03-04 02:25:00,44.3,37.9,30.15,NNE,32,0.0,-999.0,78,0.00,,,0.00,Wunderground v.1.15,2013-03-04 07:25:00,
2013-03-04 02:30:00,44.2,37.8,30.15,NNE,32,0.0,-999.0,78,0.00,,,0.00,Wunderground v.1.15,2013-03-04 07:30:00,
2013-03-04 02:35:00,44.1,37.3,30.15,NNE,32,0.0,-999.0,77,0.00,,,0.00,Wunderground v.1.15,2013-03-04 07:35:00,
2013-03-04 02:40:00,44.0,37.3,30.15,NNE,32,0.0,-999.0,77,0.00,,,0.00,Wunderground v.1.15,2013-03-04 07:40:00,
2013-03-04 02:45:00,44.0,37.6,30.15,NNE,32,0.0,-999.0,78,0.00,,,0.00,Wunderground v.1.15,2013-03-04 07:45:00,
2013-03-04 02:50:00,43.9,37.5,30.15,NNE,32,0.0,-999.0,78,0.00,,,0.00,Wunderground v.1.15,2013-03-04 07:50:00,
2013-03-04 02:55:00,43.8,37.4,30.15,NNE,32,0.0,-999.0,78,0.00,,,0.00,Wunderground v.1.15,2013-03-04 07:55:00,
2013-03-04 03:00:00,43.7,37.6,30.15,NNE,32,0.0,-999.0,79,0.00,,,0.00,Wunderground v.1.15,2013-03-04 08:00:00,
2013-03-04 03:10:00,43.5,37.4,30.14,NNE,32,0.0,-999.0,79,0.00,,,0.00,Wunderground v.1.15,2013-03-04 08:10:00,
2013-03-04 03:15:00,43.5,37.4,30.15,NNE,32,0.0,-999.0,79,0.00,,,0.00,Wunderground v.1.15,2013-03-04 08:15:00,
2013-03-04 03:25:00,43.3,36.9,30.15,NNE,32,0.0,-999.0,78,0.00,,,0.00,Wunderground v.1.15,2013-03-04 08:25:00,
2013-03-04 03:30:00,43.2,37.1,30.15,NNE,32,0.0,-999.0,79,0.00,,,0.00,Wunderground v.1.15,2013-03-04 08:30:00,
2013-03-04 03:40:00,43.1,37.3,30.15,NNE,32,0.0,-999.0,80,0.00,,,0.00,Wunderground v.1.15,2013-03-04 08:40:00,
2013-03-04 03:45:00,43.1,37.0,30.15,NNE,32,0.0,-999.0,79,0.00,,,0.00,Wunderground v.1.15,2013-03-04 08:45:00,
2013-03-04 03:50:00,43.0,37.3,30.16,NNE,32,0.0,-999.0,80,0.00,,,0.00,Wunderground v.1.15,2013-03-04 08:50:00,
2013-03-04 03:55:00,43.0,37.3,30.16,NNE,32,0.0,-999.0,80,0.00,,,0.00,Wunderground v.1.15,2013-03-04 08:55:00,
2013-03-04 04:05:00,43.1,38.3,30.16,NNE,32,0.0,-999.0,83,0.00,,,0.00,Wunderground v.1.15,2013-03-04 09:05:00,
2013-03-04 04:10:00,43.0,38.5,30.16,NNE,32,0.0,-999.0,84,0.00,,,0.00,Wunderground v.1.15,2013-03-04 09:10:00,
2013-03-04 04:15:00,43.0,38.8,30.17,NNE,32,0.0,-999.0,85,0.00,,,0.00,Wunderground v.1.15,2013-03-04 09:15:00,
2013-03-04 04:25:00,42.9,37.2,30.17,NNE,32,0.0,-999.0,80,0.00,,,0.00,Wunderground v.1.15,2013-03-04 09:25:00,
2013-03-04 04:30:00,42.7,36.6,30.17,NNE,32,0.0,-999.0,79,0.00,,,0.00,Wunderground v.1.15,2013-03-04 09:30:00,
2013-03-04 04:35:00,42.6,36.5,30.17,NNE,32,0.0,-999.0,79,0.00,,,0.00,Wunderground v.1.15,2013-03-04 09:35:00,
2013-03-04 04:40:00,42.5,36.8,30.17,NNE,32,0.0,-999.0,80,0.00,,,0.00,Wunderground v.1.15,2013-03-04 09:40:00,
2013-03-04 04:50:00,42.5,37.1,30.17,NNE,32,0.0,-999.0,81,0.00,,,0.00,Wunderground v.1.15,2013-03-04 09:50:00,
2013-03-04 05:00:00,42.4,37.0,30.18,NNE,32,0.0,-999.0,81,0.00,,,0.00,Wunderground v.1.15,2013-03-04 10:00:00,
2013-03-04 05:05:00,42.5,37.7,30.18,NNE,32,0.0,-999.0,83,0.00,,,0.00,Wunderground v.1.15,2013-03-04 10:05:00,
2013-03-04 05:10:00,42.9,39.0,30.18,NNE,32,0.0,-999.0,86,0.00,,,0.00,Wunderground v.1.15,2013-03-04 10:10:00,
2013-03-04 05:20:00,43.2,39.6,30.18,NNE,32,0.0,-999.0,87,0.00,,,0.00,Wunderground v.1.15,2013-03-04 10:20:00,
2013-03-04 05:30:00,43.3,39.1,30.19,NNE,33,0.0,-999.0,85,0.00,,,0.00,Wunderground v.1.15,2013-03-04 10:30:00,
2013-03-04 05:35:00,43.5,39.9,30.18,NNE,33,0.0,-999.0,87,0.00,,,0.00,Wunderground v.1.15,2013-03-04 10:35:00,
2013-03-04 05:40:00,43.6,40.0,30.19,NE,34,0.0,-999.0,87,0.00,,,0.00,Wunderground v.1.15,2013-03-04 10:40:00,
2013-03-04 05:50:00,43.6,38.5,30.19,NE,34,0.0,-999.0,82,0.00,,,0.00,Wunderground v.1.15,2013-03-04 10:50:00,
2013-03-04 05:55:00,43.4,38.0,30.19,NE,34,0.0,-999.0,81,0.00,,,0.00,Wunderground v.1.15,2013-03-04 10:55:00,
2013-03-04 06:00:00,43.3,37.5,30.19,NNE,33,0.0,-999.0,80,0.00,,,0.00,Wunderground v.1.15,2013-03-04 11:00:00,
2013-03-04 06:10:00,43.3,37.9,30.20,NE,34,0.0,-999.0,81,0.00,,,0.00,Wunderground v.1.15,2013-03-04 11:10:00,
2013-03-04 06:15:00,43.2,37.8,30.20,NNE,33,0.0,-999.0,81,0.00,,,0.00,Wunderground v.1.15,2013-03-04 11:15:00,
2013-03-04 06:20:00,43.1,37.7,30.20,NNE,33,0.0,-999.0,81,0.00,,,0.00,Wunderground v.1.15,2013-03-04 11:20:00,
2013-03-04 06:25:00,43.1,38.6,30.20,NE,34,0.0,-999.0,84,0.00,,,0.00,Wunderground v.1.15,2013-03-04 11:25:00,
2013-03-04 06:35:00,42.9,38.4,30.20,NE,34,0.0,-999.0,84,0.00,,,0.00,Wunderground v.1.15,2013-03-04 11:35:00,
2013-03-04 06:40:00,42.8,38.6,30.20,NNE,32,0.0,-999.0,85,0.00,,,0.00,Wunderground v.1.15,2013-03-04 11:40:00,
2013-03-04 06:45:00,42.5,38.3,30.20,NNE,32,0.0,-999.0,85,0.00,,,0.00,Wunderground v.1.15,2013-03-04 11:45:00,
2013-03-04 06:50:00,42.3,38.1,30.20,NNE,32,0.0,-999.0,85,0.00,,,0.00,Wunderground v.1.15,2013-03-04 11:50:00,
2013-03-04 06:55:00,42.3,38.1,30.21,NNE,32,0.0,-999.0,85,0.00,,,0.00,Wunderground v.1.15,2013-03-04 11:55:00,
2013-03-04 07:05:00,42.2,38.3,30.21,NNE,32,0.0,-999.0,86,0.00,,,0.00,Wunderground v.1.15,2013-03-04 12:05:00,
2013-03-04 07:10:00,42.3,38.7,30.22,NNE,32,0.0,-999.0,87,0.00,,,0.00,Wunderground v.1.15,2013-03-04 12:10:00,
2013-03-04 07:15:00,42.9,38.7,30.22,NNE,32,0.0,-999.0,85,0.00,,,0.00,Wunderground v.1.15,2013-03-04 12:15:00,
2013-03-04 07:25:00,45.1,39.9,30.22,NNE,32,0.0,-999.0,82,0.00,,,0.00,Wunderground v.1.15,2013-03-04 12:25:00,
2013-03-04 07:30:00,46.2,38.4,30.22,NNE,32,0.0,-999.0,74,0.00,,,0.00,Wunderground v.1.15,2013-03-04 12:30:00,
2013-03-04 07:35:00,46.8,38.9,30.22,NNE,32,0.0,-999.0,74,0.00,,,0.00,Wunderground v.1.15,2013-03-04 12:35:00,
2013-03-04 07:40:00,47.2,38.3,30.22,NNE,32,0.0,-999.0,71,0.00,,,0.00,Wunderground v.1.15,2013-03-04 12:40:00,
2013-03-04 07:50:00,46.7,37.1,30.23,NE,46,0.0,-999.0,69,0.00,,,0.00,Wunderground v.1.15,2013-03-04 12:50:00,
2013-03-04 08:00:00,46.5,38.0,30.22,NE,45,0.0,-999.0,72,0.00,,,0.00,Wunderground v.1.15,2013-03-04 13:00:00,
2013-03-04 08:05:00,46.5,36.1,30.23,NNE,28,1.0,-999.0,67,0.00,,,0.00,Wunderground v.1.15,2013-03-04 13:05:00,
2013-03-04 08:10:00,46.7,36.7,30.23,NNE,26,1.0,-999.0,68,0.00,,,0.00,Wunderground v.1.15,2013-03-04 13:10:00,
2013-03-04 08:20:00,47.0,37.0,30.23,NW,322,1.0,-999.0,68,0.00,,,0.00,Wunderground v.1.15,2013-03-04 13:20:00,
2013-03-04 08:25:00,47.2,35.2,30.23,NE,42,1.0,-999.0,63,0.00,,,0.00,Wunderground v.1.15,2013-03-04 13:25:00,
2013-03-04 08:30:00,47.5,35.5,30.23,NE,38,1.0,-999.0,63,0.00,,,0.00,Wunderground v.1.15,2013-03-04 13:30:00,
2013-03-04 08:35:00,47.9,35.5,30.23,NE,41,1.0,-999.0,62,0.00,,,0.00,Wunderground v.1.15,2013-03-04 13:35:00,
2013-03-04 08:40:00,48.1,34.9,30.23,ENE,64,1.0,-999.0,60,0.00,,,0.00,Wunderground v.1.15,2013-03-04 13:40:00,
2013-03-04 08:45:00,48.3,35.5,30.24,NE,49,1.0,-999.0,61,0.00,,,0.00,Wunderground v.1.15,2013-03-04 13:45:00,
2013-03-04 08:55:00,49.0,37.3,30.24,NNE,33,0.0,-999.0,64,0.00,,,0.00,Wunderground v.1.15,2013-03-04 13:55:00,
2013-03-04 09:00:00,50.0,37.9,30.24,North,11,0.0,-999.0,63,0.00,,,0.00,Wunderground v.1.15,2013-03-04 14:00:00,
2013-03-04 09:10:00,51.9,38.4,30.24,NW,325,0.0,-999.0,60,0.00,,,0.00,Wunderground v.1.15,2013-03-04 14:10:00,
2013-03-04 09:15:00,52.6,39.1,30.24,NNE,15,0.0,-999.0,60,0.00,,,0.00,Wunderground v.1.15,2013-03-04 14:15:00,
2013-03-04 09:20:00,53.2,38.4,30.24,NNE,24,0.0,-999.0,57,0.00,,,0.00,Wunderground v.1.15,2013-03-04 14:20:00,
2013-03-04 09:25:00,53.6,38.7,30.24,ENE,59,0.0,-999.0,57,0.00,,,0.00,Wunderground v.1.15,2013-03-04 14:25:00,
2013-03-04 09:30:00,53.8,38.5,30.24,ENE,65,1.0,-999.0,56,0.00,,,0.00,Wunderground v.1.15,2013-03-04 14:30:00,
2013-03-04 09:35:00,53.8,38.5,30.24,ENE,65,1.0,-999.0,56,0.00,,,0.00,Wunderground v.1.15,2013-03-04 14:35:00,
2013-03-04 09:40:00,53.9,39.0,30.24,NW,315,1.0,-999.0,57,0.00,,,0.00,Wunderground v.1.15,2013-03-04 14:40:00,
2013-03-04 09:50:00,54.6,39.2,30.24,NE,55,1.0,-999.0,56,0.00,,,0.00,Wunderground v.1.15,2013-03-04 14:50:00,
2013-03-04 09:55:00,55.0,38.2,30.24,ENE,59,1.0,-999.0,53,0.00,,,0.00,Wunderground v.1.15,2013-03-04 14:55:00,
2013-03-04 10:00:00,55.1,39.2,30.24,East,83,1.0,-999.0,55,0.00,,,0.00,Wunderground v.1.15,2013-03-04 15:00:00,
2013-03-04 10:10:00,56.2,39.8,30.23,NNE,13,0.0,-999.0,54,0.00,,,0.00,Wunderground v.1.15,2013-03-04 15:10:00,
2013-03-04 10:15:00,56.7,40.7,30.23,North,360,0.0,-999.0,55,0.00,,,0.00,Wunderground v.1.15,2013-03-04 15:15:00,
2013-03-04 10:20:00,56.9,40.4,30.23,NNW,330,1.0,-999.0,54,0.00,,,0.00,Wunderground v.1.15,2013-03-04 15:20:00,
2013-03-04 10:25:00,57.3,39.8,30.23,NW,325,1.0,-999.0,52,0.00,,,0.00,Wunderground v.1.15,2013-03-04 15:25:00,
2013-03-04 10:35:00,58.0,40.0,30.23,NNE,21,0.0,-999.0,51,0.00,,,0.00,Wunderground v.1.15,2013-03-04 15:35:00,
2013-03-04 10:40:00,57.9,40.9,30.23,NNW,328,1.0,-999.0,53,0.00,,,0.00,Wunderground v.1.15,2013-03-04 15:40:00,
2013-03-04 10:45:00,58.3,42.2,30.22,NNW,330,0.0,-999.0,55,0.00,,,0.00,Wunderground v.1.15,2013-03-04 15:45:00,
2013-03-04 10:50:00,58.5,39.9,30.22,NNW,330,0.0,-999.0,50,0.00,,,0.00,Wunderground v.1.15,2013-03-04 15:50:00,
2013-03-04 10:55:00,58.6,41.0,30.22,NW,312,1.0,-999.0,52,0.00,,,0.00,Wunderground v.1.15,2013-03-04 15:55:00,
2013-03-04 11:00:00,58.7,40.6,30.22,ENE,64,1.0,-999.0,51,0.00,,,0.00,Wunderground v.1.15,2013-03-04 16:00:00,
2013-03-04 11:10:00,58.7,40.1,30.22,NNW,345,0.0,-999.0,50,0.00,,,0.00,Wunderground v.1.15,2013-03-04 16:10:00,
2013-03-04 11:15:00,59.0,41.4,30.22,NW,313,1.0,-999.0,52,0.00,,,0.00,Wunderground v.1.15,2013-03-04 16:15:00,
2013-03-04 11:20:00,59.4,40.7,30.21,NW,309,1.0,-999.0,50,0.00,,,0.00,Wunderground v.1.15,2013-03-04 16:20:00,
2013-03-04 11:25:00,59.5,42.3,30.21,NW,310,1.0,-999.0,53,0.00,,,0.00,Wunderground v.1.15,2013-03-04 16:25:00,
2013-03-04 11:35:00,60.8,41.5,30.21,NW,317,1.0,-999.0,49,0.00,,,0.00,Wunderground v.1.15,2013-03-04 16:35:00,
2013-03-04 11:40:00,60.9,39.4,30.21,WNW,299,2.0,-999.0,45,0.00,,,0.00,Wunderground v.1.15,2013-03-04 16:40:00,
2013-03-04 11:45:00,60.6,39.7,30.21,NW,312,3.0,-999.0,46,0.00,,,0.00,Wunderground v.1.15,2013-03-04 16:45:00,
2013-03-04 11:50:00,60.2,39.3,30.20,NW,309,4.0,-999.0,46,0.00,,,0.00,Wunderground v.1.15,2013-03-04 16:50:00,
2013-03-04 11:55:00,59.9,39.1,30.20,NW,310,5.0,-999.0,46,0.00,,,0.00,Wunderground v.1.15,2013-03-04 16:55:00,
2013-03-04 12:00:00,60.3,40.5,30.19,NNW,329,3.0,-999.0,48,0.00,,,0.00,Wunderground v.1.15,2013-03-04 17:00:00,
2013-03-04 12:10:00,61.7,42.3,30.19,NE,49,1.0,-999.0,49,0.00,,,0.00,Wunderground v.1.15,2013-03-04 17:10:00,
2013-03-04 12:15:00,62.3,41.2,30.18,NNW,336,1.0,-999.0,46,0.00,,,0.00,Wunderground v.1.15,2013-03-04 17:15:00,
2013-03-04 12:25:00,62.3,42.3,30.18,NW,311,1.0,-999.0,48,0.00,,,0.00,Wunderground v.1.15,2013-03-04 17:25:00,
2013-03-04 12:30:00,62.6,40.4,30.18,NW,311,2.0,-999.0,44,0.00,,,0.00,Wunderground v.1.15,2013-03-04 17:30:00,
2013-03-04 12:35:00,62.8,40.0,30.18,North,355,2.0,-999.0,43,0.00,,,0.00,Wunderground v.1.15,2013-03-04 17:35:00,
2013-03-04 12:40:00,63.0,39.5,30.18,NW,314,1.0,-999.0,42,0.00,,,0.00,Wunderground v.1.15,2013-03-04 17:40:00,
2013-03-04 12:45:00,61.9,38.5,30.17,NW,314,1.0,-999.0,42,0.00,,,0.00,Wunderground v.1.15,2013-03-04 17:45:00,
2013-03-04 12:55:00,62.3,39.5,30.17,NW,310,1.0,-999.0,43,0.00,,,0.00,Wunderground v.1.15,2013-03-04 17:55:00,
2013-03-04 13:00:00,62.8,38.1,30.17,NNW,336,1.0,-999.0,40,0.00,,,0.00,Wunderground v.1.15,2013-03-04 18:00:00,
2013-03-04 13:05:00,63.1,39.0,30.17,ENE,69,1.0,-999.0,41,0.00,,,0.00,Wunderground v.1.15,2013-03-04 18:05:00,
2013-03-04 13:10:00,63.3,39.2,30.17,ENE,63,1.0,-999.0,41,0.00,,,0.00,Wunderground v.1.15,2013-03-04 18:10:00,
2013-03-04 13:15:00,63.3,42.2,30.17,ENE,68,2.0,-999.0,46,0.00,,,0.00,Wunderground v.1.15,2013-03-04 18:15:00,
2013-03-04 13:20:00,62.7,41.0,30.17,ENE,76,4.0,-999.0,45,0.00,,,0.00,Wunderground v.1.15,2013-03-04 18:20:00,
2013-03-04 13:25:00,62.4,40.2,30.16,East,79,5.0,-999.0,44,0.00,,,0.00,Wunderground v.1.15,2013-03-04 18:25:00,
2013-03-04 13:30:00,62.7,39.9,30.16,East,84,4.0,-999.0,43,0.00,,,0.00,Wunderground v.1.15,2013-03-04 18:30:00,
2013-03-04 13:35:00,62.9,40.6,30.16,ESE,103,4.0,-999.0,44,0.00,,,0.00,Wunderground v.1.15,2013-03-04 18:35:00,
2013-03-04 13:40:00,63.1,41.4,30.16,ENE,78,3.0,-999.0,45,0.00,,,0.00,Wunderground v.1.15,2013-03-04 18:40:00,
2013-03-04 13:45:00,63.4,40.5,30.16,ENE,72,2.0,-999.0,43,0.00,,,0.00,Wunderground v.1.15,2013-03-04 18:45:00,
2013-03-04 13:50:00,63.4,39.3,30.16,ENE,74,3.0,-999.0,41,0.00,,,0.00,Wunderground v.1.15,2013-03-04 18:50:00,
2013-03-04 13:55:00,63.3,38.6,30.15,ENE,67,4.0,-999.0,40,0.00,,,0.00,Wunderground v.1.15,2013-03-04 18:55:00,
2013-03-04 14:00:00,63.6,39.5,30.15,ENE,70,2.0,-999.0,41,0.00,,,0.00,Wunderground v.1.15,2013-03-04 19:00:00,
2013-03-04 14:05:00,64.1,40.5,30.15,ENE,71,2.0,-999.0,42,0.00,,,0.00,Wunderground v.1.15,2013-03-04 19:05:00,
2013-03-04 14:10:00,64.6,40.4,30.15,ENE,75,2.0,-999.0,41,0.00,,,0.00,Wunderground v.1.15,2013-03-04 19:10:00,
2013-03-04 14:15:00,64.9,40.6,30.15,ENE,74,1.0,-999.0,41,0.00,,,0.00,Wunderground v.1.15,2013-03-04 19:15:00,
2013-03-04 14:25:00,64.8,39.2,30.15,ENE,74,2.0,-999.0,39,0.00,,,0.00,Wunderground v.1.15,2013-03-04 19:25:00,
2013-03-04 14:35:00,65.2,40.3,30.14,ENE,70,1.0,-999.0,40,0.00,,,0.00,Wunderground v.1.15,2013-03-04 19:35:00,
2013-03-04 14:40:00,65.5,39.9,30.14,ENE,74,0.0,-999.0,39,0.00,,,0.00,Wunderground v.1.15,2013-03-04 19:40:00,
2013-03-04 14:45:00,65.8,40.1,30.14,ENE,74,1.0,-999.0,39,0.00,,,0.00,Wunderground v.1.15,2013-03-04 19:45:00,
2013-03-04 14:50:00,66.6,39.5,30.14,ENE,78,3.0,-999.0,37,0.00,,,0.00,Wunderground v.1.15,2013-03-04 19:50:00,
2013-03-04 15:00:00,66.4,37.9,30.14,East,93,1.0,-999.0,35,0.00,,,0.00,Wunderground v.1.15,2013-03-04 20:00:00,
2013-03-04 15:05:00,66.2,38.4,30.14,SSE,167,1.0,-999.0,36,0.00,,,0.00,Wunderground v.1.15,2013-03-04 20:05:00,
2013-03-04 15:10:00,66.1,39.1,30.14,SSE,167,1.0,-999.0,37,0.00,,,0.00,Wunderground v.1.15,2013-03-04 20:10:00,
2013-03-04 15:15:00,66.6,38.1,30.14,SSE,167,0.0,-999.0,35,0.00,,,0.00,Wunderground v.1.15,2013-03-04 20:15:00,
2013-03-04 15:25:00,66.7,38.9,30.14,SSE,163,1.0,-999.0,36,0.00,,,0.00,Wunderground v.1.15,2013-03-04 20:25:00,
2013-03-04 15:30:00,66.6,42.2,30.14,WSW,254,2.0,-999.0,41,0.00,,,0.00,Wunderground v.1.15,2013-03-04 20:30:00,
2013-03-04 15:40:00,66.4,43.2,30.13,West,261,3.0,-999.0,43,0.00,,,0.00,Wunderground v.1.15,2013-03-04 20:40:00,
2013-03-04 15:45:00,65.9,44.5,30.13,SW,236,4.0,-999.0,46,0.00,,,0.00,Wunderground v.1.15,2013-03-04 20:45:00,
2013-03-04 15:50:00,65.6,44.3,30.13,WSW,238,4.0,-999.0,46,0.00,,,0.00,Wunderground v.1.15,2013-03-04 20:50:00,
2013-03-04 15:55:00,65.5,44.2,30.13,WSW,241,4.0,-999.0,46,0.00,,,0.00,Wunderground v.1.15,2013-03-04 20:55:00,
2013-03-04 16:00:00,65.3,44.5,30.13,WSW,245,4.0,-999.0,47,0.00,,,0.00,Wunderground v.1.15,2013-03-04 21:00:00,
2013-03-04 16:10:00,65.8,45.0,30.13,SW,227,3.0,-999.0,47,0.00,,,0.00,Wunderground v.1.15,2013-03-04 21:10:00,
2013-03-04 16:15:00,65.7,45.5,30.13,WSW,240,3.0,-999.0,48,0.00,,,0.00,Wunderground v.1.15,2013-03-04 21:15:00,
2013-03-04 16:25:00,65.2,45.5,30.13,WSW,246,4.0,-999.0,49,0.00,,,0.00,Wunderground v.1.15,2013-03-04 21:25:00,
2013-03-04 16:30:00,65.7,44.9,30.13,WNW,284,4.0,-999.0,47,0.00,,,0.00,Wunderground v.1.15,2013-03-04 21:30:00,
2013-03-04 16:35:00,65.5,44.2,30.13,WSW,254,3.0,-999.0,46,0.00,,,0.00,Wunderground v.1.15,2013-03-04 21:35:00,
2013-03-04 16:45:00,65.2,44.5,30.13,SW,227,3.0,-999.0,47,0.00,,,0.00,Wunderground v.1.15,2013-03-04 21:45:00,
2013-03-04 16:50:00,64.7,45.1,30.13,WSW,241,4.0,-999.0,49,0.00,,,0.00,Wunderground v.1.15,2013-03-04 21:50:00,
2013-03-04 16:55:00,64.9,45.8,30.13,SW,222,4.0,-999.0,50,0.00,,,0.00,Wunderground v.1.15,2013-03-04 21:55:00,
2013-03-04 17:00:00,64.9,45.8,30.13,WSW,255,3.0,-999.0,50,0.00,,,0.00,Wunderground v.1.15,2013-03-04 22:00:00,
2013-03-04 17:10:00,63.8,46.3,30.13,WSW,237,5.0,-999.0,53,0.00,,,0.00,Wunderground v.1.15,2013-03-04 22:10:00,
2013-03-04 17:15:00,64.0,45.5,30.13,WSW,242,4.0,-999.0,51,0.00,,,0.00,Wunderground v.1.15,2013-03-04 22:15:00,
2013-03-04 17:25:00,64.7,45.6,30.14,WNW,302,3.0,-999.0,50,0.00,,,0.00,Wunderground v.1.15,2013-03-04 22:25:00,
2013-03-04 17:30:00,64.5,46.5,30.14,NW,316,3.0,-999.0,52,0.00,,,0.00,Wunderground v.1.15,2013-03-04 22:30:00,
2013-03-04 17:35:00,63.8,46.3,30.14,WSW,241,3.0,-999.0,53,0.00,,,0.00,Wunderground v.1.15,2013-03-04 22:35:00,
2013-03-04 17:40:00,63.7,46.2,30.14,WSW,242,3.0,-999.0,53,0.00,,,0.00,Wunderground v.1.15,2013-03-04 22:40:00,
2013-03-04 17:45:00,63.6,47.1,30.14,WSW,252,2.0,-999.0,55,0.00,,,0.00,Wunderground v.1.15,2013-03-04 22:45:00,
2013-03-04 17:55:00,62.8,47.3,30.14,WSW,250,3.0,-999.0,57,0.00,,,0.00,Wunderground v.1.15,2013-03-04 22:55:00,
2013-03-04 18:00:00,62.7,46.3,30.14,WNW,291,2.0,-999.0,55,0.00,,,0.00,Wunderground v.1.15,2013-03-04 23:00:00,
2013-03-04 18:10:00,62.5,46.1,30.14,WNW,300,2.0,-999.0,55,0.00,,,0.00,Wunderground v.1.15,2013-03-04 23:10:00,
2013-03-04 18:15:00,62.1,45.7,30.15,NW,326,2.0,-999.0,55,0.00,,,0.00,Wunderground v.1.15,2013-03-04 23:15:00,
2013-03-04 18:20:00,61.4,45.6,30.15,WNW,300,3.0,-999.0,56,0.00,,,0.00,Wunderground v.1.15,2013-03-04 23:20:00,
2013-03-04 18:25:00,60.7,46.3,30.14,NW,306,3.0,-999.0,59,0.00,,,0.00,Wunderground v.1.15,2013-03-04 23:25:00,
2013-03-04 18:30:00,60.2,46.3,30.15,WNW,303,2.0,-999.0,60,0.00,,,0.00,Wunderground v.1.15,2013-03-04 23:30:00,
2013-03-04 18:40:00,59.1,46.1,30.15,WNW,303,1.0,-999.0,62,0.00,,,0.00,Wunderground v.1.15,2013-03-04 23:40:00,
2013-03-04 18:45:00,58.7,46.1,30.15,WNW,303,1.0,-999.0,63,0.00,,,0.00,Wunderground v.1.15,2013-03-04 23:45:00,
2013-03-04 18:50:00,58.5,46.4,30.15,WNW,303,0.0,-999.0,64,0.00,,,0.00,Wunderground v.1.15,2013-03-04 23:50:00,
2013-03-04 18:55:00,58.2,46.5,30.15,WNW,303,0.0,-999.0,65,0.00,,,0.00,Wunderground v.1.15,2013-03-04 23:55:00,
2013-03-04 19:05:00,57.8,46.1,30.15,West,274,1.0,-999.0,65,0.00,,,0.00,Wunderground v.1.15,2013-03-05 00:05:00,
2013-03-04 19:10:00,57.7,46.4,30.15,West,274,0.0,-999.0,66,0.00,,,0.00,Wunderground v.1.15,2013-03-05 00:10:00,
2013-03-04 19:15:00,57.6,48.3,30.15,West,274,0.0,-999.0,71,0.00,,,0.00,Wunderground v.1.15,2013-03-05 00:15:00,
2013-03-04 19:25:00,57.2,46.7,30.15,West,273,0.0,-999.0,68,0.00,,,0.00,Wunderground v.1.15,2013-03-05 00:25:00,
2013-03-04 19:30:00,57.0,46.9,30.16,West,273,0.0,-999.0,69,0.00,,,0.00,Wunderground v.1.15,2013-03-05 00:30:00,
2013-03-04 19:35:00,56.8,46.7,30.16,West,274,0.0,-999.0,69,0.00,,,0.00,Wunderground v.1.15,2013-03-05 00:35:00,
2013-03-04 19:40:00,56.6,46.5,30.16,West,274,0.0,-999.0,69,0.00,,,0.00,Wunderground v.1.15,2013-03-05 00:40:00,
2013-03-04 19:50:00,56.2,47.3,30.16,West,274,0.0,-999.0,72,0.00,,,0.00,Wunderground v.1.15,2013-03-05 00:50:00,
2013-03-04 20:00:00,56.0,47.5,30.17,West,273,0.0,-999.0,73,0.00,,,0.00,Wunderground v.1.15,2013-03-05 01:00:00,
2013-03-04 20:05:00,55.9,47.4,30.17,West,274,0.0,-999.0,73,0.00,,,0.00,Wunderground v.1.15,2013-03-05 01:05:00,
2013-03-04 20:15:00,55.6,47.1,30.17,West,274,0.0,-999.0,73,0.00,,,0.00,Wunderground v.1.15,2013-03-05 01:15:00,
2013-03-04 20:20:00,55.5,47.3,30.17,West,274,0.0,-999.0,74,0.00,,,0.00,Wunderground v.1.15,2013-03-05 01:20:00,
2013-03-04 20:25:00,55.4,47.6,30.17,West,273,0.0,-999.0,75,0.00,,,0.00,Wunderground v.1.15,2013-03-05 01:25:00,
2013-03-04 20:30:00,55.2,47.4,30.18,West,273,0.0,-999.0,75,0.00,,,0.00,Wunderground v.1.15,2013-03-05 01:30:00,
2013-03-04 20:35:00,55.2,48.5,30.18,West,274,0.0,-999.0,78,0.00,,,0.00,Wunderground v.1.15,2013-03-05 01:35:00,
2013-03-04 20:45:00,54.5,47.8,30.18,West,274,0.0,-999.0,78,0.00,,,0.00,Wunderground v.1.15,2013-03-05 01:45:00,
2013-03-04 20:50:00,54.2,47.8,30.18,West,273,0.0,-999.0,79,0.00,,,0.00,Wunderground v.1.15,2013-03-05 01:50:00,
2013-03-04 20:55:00,54.0,48.3,30.18,West,274,0.0,-999.0,81,0.00,,,0.00,Wunderground v.1.15,2013-03-05 01:55:00,
2013-03-04 21:05:00,53.6,48.2,30.18,West,274,0.0,-999.0,82,0.00,,,0.00,Wunderground v.1.15,2013-03-05 02:05:00,
2013-03-04 21:10:00,53.4,48.4,30.18,West,273,0.0,-999.0,83,0.00,,,0.00,Wunderground v.1.15,2013-03-05 02:10:00,
2013-03-04 21:15:00,53.2,47.8,30.18,West,274,0.0,-999.0,82,0.00,,,0.00,Wunderground v.1.15,2013-03-05 02:15:00,
2013-03-04 21:20:00,53.0,48.3,30.18,West,274,0.0,-999.0,84,0.00,,,0.00,Wunderground v.1.15,2013-03-05 02:20:00,
2013-03-04 21:30:00,52.8,48.1,30.18,West,274,0.0,-999.0,84,0.00,,,0.00,Wunderground v.1.15,2013-03-05 02:30:00,
2013-03-04 21:35:00,52.6,48.2,30.18,West,274,0.0,-999.0,85,0.00,,,0.00,Wunderground v.1.15,2013-03-05 02:35:00,
2013-03-04 21:45:00,52.3,49.2,30.18,West,274,0.0,-999.0,89,0.00,,,0.00,Wunderground v.1.15,2013-03-05 02:45:00,
2013-03-04 21:50:00,52.1,48.0,30.18,West,273,0.0,-999.0,86,0.00,,,0.00,Wunderground v.1.15,2013-03-05 02:50:00,
2013-03-04 21:55:00,52.0,47.6,30.18,West,274,0.0,-999.0,85,0.00,,,0.00,Wunderground v.1.15,2013-03-05 02:55:00,
2013-03-04 22:00:00,51.8,46.8,30.17,West,274,0.0,-999.0,83,0.00,,,0.00,Wunderground v.1.15,2013-03-05 03:00:00,
2013-03-04 22:10:00,51.5,47.5,30.18,West,274,0.0,-999.0,86,0.00,,,0.00,Wunderground v.1.15,2013-03-05 03:10:00,
2013-03-04 22:15:00,51.4,47.4,30.17,West,274,0.0,-999.0,86,0.00,,,0.00,Wunderground v.1.15,2013-03-05 03:15:00,
2013-03-04 22:20:00,51.4,47.7,30.17,West,274,0.0,-999.0,87,0.00,,,0.00,Wunderground v.1.15,2013-03-05 03:20:00,
2013-03-04 22:30:00,51.3,46.9,30.17,West,274,0.0,-999.0,85,0.00,,,0.00,Wunderground v.1.15,2013-03-05 03:30:00,
2013-03-04 22:35:00,51.2,46.5,30.17,West,274,0.0,-999.0,84,0.00,,,0.00,Wunderground v.1.15,2013-03-05 03:35:00,
2013-03-04 22:40:00,51.2,46.8,30.18,West,273,0.0,-999.0,85,0.00,,,0.00,Wunderground v.1.15,2013-03-05 03:40:00,
2013-03-04 22:45:00,51.1,47.1,30.18,West,274,0.0,-999.0,86,0.00,,,0.00,Wunderground v.1.15,2013-03-05 03:45:00,
2013-03-04 22:50:00,51.1,47.4,30.18,West,273,0.0,-999.0,87,0.00,,,0.00,Wunderground v.1.15,2013-03-05 03:50:00,
2013-03-04 23:00:00,50.7,46.4,30.18,West,274,0.0,-999.0,85,0.00,,,0.00,Wunderground v.1.15,2013-03-05 04:00:00,
2013-03-04 23:05:00,50.6,46.3,30.18,West,274,0.0,-999.0,85,0.00,,,0.00,Wunderground v.1.15,2013-03-05 04:05:00,
2013-03-04 23:15:00,50.6,46.3,30.18,West,274,0.0,-999.0,85,0.00,,,0.00,Wunderground v.1.15,2013-03-05 04:15:00,
2013-03-04 23:20:00,50.5,46.8,30.18,West,273,0.0,-999.0,87,0.00,,,0.00,Wunderground v.1.15,2013-03-05 04:20:00,
2013-03-04 23:25:00,50.5,46.8,30.18,West,274,0.0,-999.0,87,0.00,,,0.00,Wunderground v.1.15,2013-03-05 04:25:00,
2013-03-04 23:30:00,50.3,46.6,30.18,West,273,0.0,-999.0,87,0.00,,,0.00,Wunderground v.1.15,2013-03-05 04:30:00,
2013-03-04 23:35:00,50.3,47.2,30.18,West,274,0.0,-999.0,89,0.00,,,0.00,Wunderground v.1.15,2013-03-05 04:35:00,
2013-03-04 23:45:00,50.3,46.9,30.18,West,274,0.0,-999.0,88,0.00,,,0.00,Wunderground v.1.15,2013-03-05 04:45:00,
2013-03-04 23:50:00,50.2,46.8,30.19,West,274,0.0,-999.0,88,0.00,,,0.00,Wunderground v.1.15,2013-03-05 04:50:00,
2013-03-04 23:55:00,50.2,46.8,30.18,West,274,0.0,-999.0,88,0.00,,,0.00,Wunderground v.1.15,2013-03-05 04:55:00,